createdAt,value
2022-08-19T00:04:54.219Z,8.80
2022-08-19T00:11:01.181Z,8.40
2022-08-19T00:16:49.355Z,9.00
2022-08-19T00:23:27.244Z,9.00
2022-08-19T00:29:34.532Z,9.10
2022-08-19T00:35:56.069Z,9.60
2022-08-19T00:42:21.709Z,9.30
2022-08-19T00:48:30.018Z,9.10
2022-08-19T00:54:18.869Z,10.40
2022-08-19T01:00:38.271Z,9.30
2022-08-19T01:06:50.880Z,9.30
2022-08-19T01:13:10.819Z,10.20
2022-08-19T01:19:59.947Z,9.70
2022-08-19T01:26:16.450Z,9.40
2022-08-19T01:32:49.270Z,9.20
2022-08-19T01:39:17.278Z,9.70
2022-08-19T01:45:22.087Z,10.60
2022-08-19T01:51:54.765Z,11.20
2022-08-19T01:58:29.960Z,11.10
2022-08-19T02:04:33.830Z,12.00
2022-08-19T02:10:33.920Z,11.40
2022-08-19T02:16:39.275Z,12.20
2022-08-19T02:22:48.168Z,11.50
2022-08-19T02:28:39.901Z,11.20
2022-08-19T02:34:57.137Z,12.20
2022-08-19T02:41:22.429Z,11.70
2022-08-19T02:48:30.251Z,13.40
2022-08-19T02:55:09.386Z,13.50
2022-08-19T03:02:03.313Z,14.80
2022-08-19T03:08:38.435Z,14.00
2022-08-19T03:15:41.602Z,13.70
2022-08-19T03:22:24.616Z,14.50
2022-08-19T03:29:30.723Z,14.70
2022-08-19T03:36:34.899Z,14.10
2022-08-19T03:43:09.684Z,13.70
2022-08-19T03:49:42.462Z,13.50
2022-08-19T03:56:48.817Z,15.00
2022-08-19T04:03:31.351Z,12.80
2022-08-19T04:10:04.423Z,11.80
2022-08-19T04:16:51.778Z,12.60
2022-08-19T04:23:04.888Z,13.60
2022-08-19T04:29:30.641Z,12.00
2022-08-19T04:35:36.526Z,11.30
2022-08-19T04:42:00.071Z,11.70
2022-08-19T04:47:46.856Z,11.80
2022-08-19T05:00:21.334Z,10.50
2022-08-19T05:06:21.703Z,11.20
2022-08-19T05:12:38.964Z,11.70
2022-08-19T05:18:58.052Z,24.30
2022-08-19T05:24:31.436Z,10.80
2022-08-19T05:31:14.837Z,12.00
2022-08-19T05:37:31.258Z,11.60
2022-08-19T05:42:56.331Z,12.00
2022-08-19T05:48:21.657Z,12.30
2022-08-19T05:53:52.665Z,12.30
2022-08-19T06:00:37.426Z,11.20
2022-08-19T06:06:56.073Z,11.40
2022-08-19T06:14:00.309Z,11.60
2022-08-19T06:19:57.693Z,11.40
2022-08-19T06:26:34.134Z,10.80
2022-08-19T06:33:16.515Z,12.00
2022-08-19T06:39:07.616Z,10.80
2022-08-19T06:44:42.796Z,9.90
2022-08-19T06:50:59.575Z,9.50
2022-08-19T06:57:29.209Z,9.50
2022-08-19T07:03:49.729Z,9.20
2022-08-19T07:09:59.302Z,8.70
2022-08-19T07:16:56.487Z,10.10
2022-08-19T07:23:16.227Z,9.70
2022-08-19T07:29:28.567Z,11.40
2022-08-19T07:42:55.961Z,9.50
2022-08-19T07:49:30.141Z,9.00
2022-08-19T07:55:54.490Z,8.80
2022-08-19T08:02:35.135Z,9.30
2022-08-19T08:08:29.138Z,10.70
2022-08-19T08:14:01.495Z,9.60
2022-08-19T08:19:37.583Z,9.10
2022-08-19T08:25:21.405Z,9.70
2022-08-19T08:30:52.990Z,8.20
2022-08-19T08:36:28.630Z,8.10
2022-08-19T08:42:10.420Z,7.50
2022-08-19T08:47:49.140Z,8.50
2022-08-19T08:53:29.873Z,8.00
2022-08-19T08:59:09.602Z,7.80
2022-08-19T09:04:42.777Z,7.90
2022-08-19T09:10:31.799Z,8.10
2022-08-19T09:16:21.929Z,7.50
2022-08-19T09:21:57.457Z,8.00
2022-08-19T09:27:54.041Z,9.60
2022-08-19T09:33:52.305Z,9.90
2022-08-19T09:39:20.263Z,8.60
2022-08-19T09:44:44.231Z,8.40
2022-08-19T09:50:16.639Z,8.00
2022-08-19T09:55:49.336Z,8.60
2022-08-19T10:01:27.565Z,8.80
2022-08-19T10:07:00.026Z,8.90
2022-08-19T10:12:23.655Z,10.00
2022-08-19T10:17:58.815Z,8.70
2022-08-19T10:23:24.343Z,8.20
2022-08-19T10:28:47.785Z,9.30
2022-08-19T10:34:17.605Z,7.40
2022-08-19T10:40:03.201Z,9.50
2022-08-19T10:45:37.616Z,8.10
2022-08-19T10:51:46.512Z,8.80
2022-08-19T10:57:52.401Z,7.20
2022-08-19T11:04:18.693Z,6.60
2022-08-19T11:10:04.162Z,8.20
2022-08-19T11:15:29.904Z,8.50
2022-08-19T11:20:54.913Z,6.60
2022-08-19T11:26:21.058Z,7.30
2022-08-19T11:31:50.945Z,7.20
2022-08-19T11:37:22.209Z,8.20
2022-08-19T11:43:00.650Z,6.70
2022-08-19T11:48:58.556Z,6.40
2022-08-19T11:54:43.665Z,6.70
2022-08-19T12:00:13.122Z,6.70
2022-08-19T12:05:52.356Z,6.70
2022-08-19T12:11:26.006Z,6.90
2022-08-19T12:17:07.412Z,6.70
2022-08-19T12:22:50.249Z,5.90
2022-08-19T12:28:51.849Z,6.60
2022-08-19T12:34:23.392Z,5.90
2022-08-19T12:40:08.688Z,5.90
2022-08-19T12:45:47.072Z,6.50
2022-08-19T12:51:32.754Z,6.00
2022-08-19T12:57:35.312Z,6.10
2022-08-19T13:03:13.784Z,6.00
2022-08-19T13:08:50.471Z,5.90
2022-08-19T13:15:24.853Z,5.50
2022-08-19T13:21:31.871Z,5.90
2022-08-19T13:27:51.918Z,5.90
2022-08-19T13:33:53.137Z,6.40
2022-08-19T13:40:38.562Z,5.00
2022-08-19T13:46:50.163Z,5.20
2022-08-19T13:52:55.045Z,5.50
2022-08-19T13:58:35.337Z,5.10
2022-08-19T14:04:12.927Z,5.30
2022-08-19T14:09:37.762Z,5.10
2022-08-19T14:15:13.542Z,6.00
2022-08-19T14:21:26.150Z,5.40
2022-08-19T14:28:01.644Z,5.60
2022-08-19T14:34:20.866Z,5.30
2022-08-19T14:46:34.994Z,5.10
2022-08-19T14:52:38.017Z,5.20
2022-08-19T14:58:30.436Z,5.10
2022-08-19T15:04:11.386Z,4.70
2022-08-19T15:09:45.421Z,5.40
2022-08-19T15:15:48.611Z,5.10
2022-08-19T15:21:29.812Z,4.80
2022-08-19T15:27:33.932Z,5.30
2022-08-19T15:33:45.171Z,5.60
2022-08-19T15:39:54.104Z,5.70
2022-08-19T15:46:44.609Z,7.20
2022-08-19T15:53:15.180Z,7.00
2022-08-19T16:00:00.117Z,7.10
2022-08-19T16:06:48.256Z,7.20
2022-08-19T16:12:57.050Z,7.00
2022-08-19T16:19:39.033Z,7.00
2022-08-19T16:26:42.441Z,7.20
2022-08-19T16:33:33.369Z,7.10
2022-08-19T16:39:37.802Z,7.10
2022-08-19T16:46:11.647Z,7.20
2022-08-19T16:52:44.099Z,7.20
2022-08-19T16:59:16.169Z,7.40
2022-08-19T17:05:39.405Z,8.50
2022-08-19T17:12:17.916Z,7.90
2022-08-19T17:19:02.337Z,8.20
2022-08-19T17:26:05.609Z,8.30
2022-08-19T17:33:08.705Z,8.20
2022-08-19T17:40:11.427Z,6.80
2022-08-19T17:46:54.635Z,7.10
2022-08-19T17:53:49.059Z,4.40
2022-08-19T18:00:52.740Z,3.70
2022-08-19T18:07:57.335Z,4.70
2022-08-19T18:14:53.100Z,5.30
2022-08-19T18:21:31.088Z,4.50
2022-08-19T18:28:26.546Z,7.80
2022-08-19T18:35:27.323Z,5.40
2022-08-19T18:42:22.006Z,5.30
2022-08-19T18:49:25.163Z,6.00
2022-08-19T18:56:16.632Z,4.90
2022-08-19T19:03:20.022Z,5.70
2022-08-19T19:10:22.885Z,5.20
2022-08-19T19:17:25.872Z,6.70
2022-08-19T19:24:29.061Z,4.60
2022-08-19T19:31:32.157Z,5.50
2022-08-19T19:37:22.760Z,6.20
2022-08-19T19:44:31.033Z,5.70
2022-08-19T19:51:24.022Z,7.30
2022-08-19T19:58:15.490Z,7.20
2022-08-19T20:05:07.400Z,8.10
2022-08-19T20:12:13.192Z,7.80
2022-08-19T20:19:16.583Z,7.00
2022-08-19T20:26:33.726Z,7.20
2022-08-19T20:33:36.907Z,7.80
2022-08-19T20:40:31.050Z,7.60
2022-08-19T20:47:34.334Z,7.50
2022-08-19T20:54:37.830Z,7.40
2022-08-19T21:00:43.473Z,8.00
2022-08-19T21:07:46.973Z,9.20
2022-08-19T21:14:49.929Z,9.50
2022-08-19T21:21:53.003Z,9.10
2022-08-19T21:28:36.741Z,9.10
2022-08-19T21:35:40.142Z,9.40
2022-08-19T21:42:43.345Z,8.70
2022-08-19T21:49:39.621Z,8.60
2022-08-19T21:56:45.502Z,9.40
2022-08-19T22:03:48.483Z,9.10
2022-08-19T22:10:51.673Z,8.20
2022-08-19T22:17:55.863Z,8.20
2022-08-19T22:24:59.313Z,7.80
2022-08-19T22:32:23.047Z,7.10
2022-08-19T22:39:25.242Z,7.60
2022-08-19T22:46:28.250Z,9.90
2022-08-19T22:53:31.310Z,9.50
2022-08-19T23:00:27.333Z,10.30
2022-08-19T23:07:30.820Z,8.70
2022-08-19T23:14:33.714Z,8.90
2022-08-19T23:21:36.858Z,9.90
2022-08-19T23:28:38.844Z,10.50
2022-08-19T23:35:15.684Z,10.30
2022-08-19T23:42:12.700Z,10.30
2022-08-19T23:49:16.084Z,10.60
2022-08-19T23:56:05.321Z,11.90
